createdAt,value
2022-08-04T00:01:13.386Z,64.31
2022-08-04T00:03:52.993Z,63.99
2022-08-04T00:06:38.409Z,63.80
2022-08-04T00:09:16.595Z,63.83
2022-08-04T00:11:49.053Z,63.73
2022-08-04T00:14:19.606Z,63.45
2022-08-04T00:16:49.421Z,63.38
2022-08-04T00:19:32.382Z,63.61
2022-08-04T00:22:02.953Z,63.84
2022-08-04T00:24:32.465Z,63.05
2022-08-04T00:27:00.748Z,63.06
2022-08-04T00:29:28.713Z,62.95
2022-08-04T00:31:57.933Z,63.44
2022-08-04T00:34:27.671Z,63.25
2022-08-04T00:36:56.962Z,63.17
2022-08-04T00:39:26.375Z,63.02
2022-08-04T00:42:15.864Z,63.06
2022-08-04T00:45:08.350Z,63.01
2022-08-04T00:47:59.164Z,62.75
2022-08-04T00:50:35.404Z,62.80
2022-08-04T00:53:21.573Z,63.12
2022-08-04T00:56:19.971Z,63.30
2022-08-04T00:58:53.635Z,63.04
2022-08-04T01:01:37.970Z,62.92
2022-08-04T01:04:34.307Z,63.31
2022-08-04T01:07:26.316Z,62.96
2022-08-04T01:10:18.615Z,63.26
2022-08-04T01:12:52.273Z,63.49
2022-08-04T01:15:59.254Z,63.49
2022-08-04T01:18:42.348Z,63.37
2022-08-04T01:21:15.420Z,63.40
2022-08-04T01:24:04.186Z,63.44
2022-08-04T01:26:43.348Z,63.59
2022-08-04T01:29:23.235Z,63.42
2022-08-04T01:32:19.408Z,63.41
2022-08-04T01:34:56.129Z,63.39
2022-08-04T01:38:02.442Z,63.54
2022-08-04T01:40:47.549Z,63.59
2022-08-04T01:43:16.268Z,63.74
2022-08-04T01:45:50.916Z,63.49
2022-08-04T01:48:25.836Z,63.74
2022-08-04T01:50:57.072Z,63.47
2022-08-04T01:53:31.428Z,63.63
2022-08-04T01:56:00.821Z,63.82
2022-08-04T01:58:31.339Z,64.08
2022-08-04T02:01:08.166Z,63.82
2022-08-04T02:04:18.125Z,64.21
2022-08-04T02:06:59.813Z,64.33
2022-08-04T02:09:54.691Z,64.63
2022-08-04T02:12:37.618Z,64.38
2022-08-04T02:15:42.367Z,64.34
2022-08-04T02:18:23.693Z,64.49
2022-08-04T02:20:58.800Z,64.83
2022-08-04T02:23:33.509Z,64.41
2022-08-04T02:26:04.906Z,64.72
2022-08-04T02:28:47.549Z,64.86
2022-08-04T02:31:28.787Z,64.81
2022-08-04T02:34:02.539Z,64.80
2022-08-04T02:36:41.500Z,64.94
2022-08-04T02:39:13.788Z,65.25
2022-08-04T02:41:41.867Z,65.22
2022-08-04T02:44:10.536Z,64.87
2022-08-04T02:46:39.486Z,64.92
2022-08-04T02:49:09.778Z,64.61
2022-08-04T02:51:41.206Z,64.95
2022-08-04T02:54:09.873Z,64.65
2022-08-04T02:56:39.542Z,64.72
2022-08-04T02:59:10.038Z,64.73
2022-08-04T03:01:57.181Z,64.03
2022-08-04T03:04:43.319Z,64.11
2022-08-04T03:07:47.408Z,64.12
2022-08-04T03:10:26.384Z,64.48
2022-08-04T03:13:11.912Z,64.67
2022-08-04T03:15:58.366Z,65.07
2022-08-04T03:18:59.235Z,64.91
2022-08-04T03:22:02.849Z,64.98
2022-08-04T03:24:54.847Z,65.17
2022-08-04T03:27:25.618Z,65.30
2022-08-04T03:29:59.899Z,64.64
2022-08-04T03:32:49.667Z,64.58
2022-08-04T03:35:41.803Z,64.77
2022-08-04T03:38:36.383Z,64.36
2022-08-04T03:41:55.319Z,64.59
2022-08-04T03:44:31.490Z,65.33
2022-08-04T03:47:17.751Z,65.59
2022-08-04T03:50:28.098Z,66.22
2022-08-04T03:53:50.123Z,66.19
2022-08-04T03:56:30.224Z,66.70
2022-08-04T03:59:13.337Z,66.86
2022-08-04T04:02:18.004Z,66.67
2022-08-04T04:04:45.496Z,66.33
2022-08-04T04:07:24.470Z,66.22
2022-08-04T04:10:31.519Z,66.24
2022-08-04T04:13:23.133Z,66.54
2022-08-04T04:16:19.846Z,66.24
2022-08-04T04:19:15.257Z,66.49
2022-08-04T04:22:24.184Z,66.32
2022-08-04T04:25:18.958Z,67.23
2022-08-04T04:28:45.434Z,67.75
2022-08-04T04:31:08.061Z,68.05
2022-08-04T04:33:50.191Z,68.36
2022-08-04T04:36:22.925Z,68.61
2022-08-04T04:39:15.418Z,68.97
2022-08-04T04:42:10.458Z,69.17
2022-08-04T04:44:48.375Z,69.36
2022-08-04T04:48:07.111Z,69.83
2022-08-04T04:50:43.439Z,70.23
2022-08-04T04:53:48.378Z,70.45
2022-08-04T04:56:24.625Z,70.62
2022-08-04T04:58:55.443Z,70.69
2022-08-04T05:02:06.298Z,71.00
2022-08-04T05:04:54.470Z,71.04
2022-08-04T05:07:46.730Z,70.91
2022-08-04T05:11:01.013Z,70.28
2022-08-04T05:14:36.045Z,69.86
2022-08-04T05:16:37.631Z,69.01
2022-08-04T05:19:17.278Z,68.99
2022-08-04T05:21:57.105Z,67.97
2022-08-04T05:24:27.744Z,67.24
2022-08-04T05:27:00.560Z,67.09
2022-08-04T05:29:42.891Z,66.99
2022-08-04T05:32:14.957Z,66.54
2022-08-04T05:34:45.353Z,66.30
2022-08-04T05:37:17.330Z,66.08
2022-08-04T05:39:54.355Z,65.06
2022-08-04T05:42:23.453Z,64.20
2022-08-04T05:44:51.962Z,63.17
2022-08-04T05:47:22.284Z,62.61
2022-08-04T05:50:01.090Z,60.90
2022-08-04T05:52:32.542Z,60.08
2022-08-04T05:55:01.745Z,59.32
2022-08-04T05:57:30.524Z,58.42
2022-08-04T06:00:06.958Z,57.65
2022-08-04T06:02:45.078Z,56.16
2022-08-04T06:05:14.851Z,55.24
2022-08-04T06:08:04.425Z,55.47
2022-08-04T06:10:34.455Z,56.52
2022-08-04T06:13:08.098Z,57.34
2022-08-04T06:15:39.414Z,57.95
2022-08-04T06:18:35.138Z,56.70
2022-08-04T06:21:03.965Z,54.10
2022-08-04T06:23:52.826Z,53.89
2022-08-04T06:26:26.151Z,53.01
2022-08-04T06:28:55.478Z,52.58
2022-08-04T06:32:28.280Z,52.48
2022-08-04T06:34:32.031Z,50.29
2022-08-04T06:37:00.507Z,50.59
2022-08-04T06:39:30.351Z,49.05
2022-08-04T06:42:21.737Z,48.18
2022-08-04T06:44:50.449Z,46.18
2022-08-04T06:47:21.597Z,44.53
2022-08-04T06:51:25.745Z,42.40
2022-08-04T06:52:41.061Z,40.96
2022-08-04T06:55:09.110Z,39.05
2022-08-04T06:57:37.861Z,36.08
2022-08-04T07:00:11.175Z,36.23
2022-08-04T07:02:45.887Z,36.58
2022-08-04T07:05:14.432Z,37.31
2022-08-04T07:07:57.240Z,38.48
2022-08-04T07:10:30.142Z,40.08
2022-08-04T07:12:59.128Z,40.24
2022-08-04T07:15:27.047Z,40.60
2022-08-04T07:18:00.209Z,39.43
2022-08-04T07:20:35.920Z,36.40
2022-08-04T07:23:05.945Z,35.34
2022-08-04T07:25:59.533Z,34.07
2022-08-04T07:28:29.910Z,32.55
2022-08-04T07:30:58.437Z,32.04
2022-08-04T07:33:26.354Z,32.46
2022-08-04T07:36:04.795Z,33.47
2022-08-04T07:38:51.271Z,34.60
2022-08-04T07:41:40.722Z,36.10
2022-08-04T07:44:09.636Z,35.98
2022-08-04T07:46:37.639Z,35.90
2022-08-04T07:49:06.268Z,34.39
2022-08-04T07:51:35.890Z,33.34
2022-08-04T07:54:05.552Z,32.45
2022-08-04T07:56:35.685Z,32.71
2022-08-04T07:59:03.882Z,32.96
2022-08-04T08:01:31.594Z,32.61
2022-08-04T08:04:00.706Z,32.62
2022-08-04T08:06:32.830Z,33.25
2022-08-04T08:09:12.253Z,34.07
2022-08-04T08:12:37.959Z,35.58
2022-08-04T08:14:41.318Z,37.66
2022-08-04T08:17:09.141Z,39.09
2022-08-04T08:19:37.513Z,40.11
2022-08-04T08:22:05.743Z,41.16
2022-08-04T08:24:36.607Z,42.10
2022-08-04T08:27:05.377Z,41.36
2022-08-04T08:29:35.133Z,41.44
2022-08-04T08:32:08.750Z,41.32
2022-08-04T08:34:38.778Z,42.29
2022-08-04T08:37:09.120Z,42.21
2022-08-04T08:40:17.358Z,42.61
2022-08-04T08:43:59.824Z,42.23
2022-08-04T08:46:09.342Z,42.38
2022-08-04T08:48:46.127Z,43.11
2022-08-04T08:51:35.256Z,43.19
2022-08-04T08:54:21.508Z,43.04
2022-08-04T08:57:20.526Z,43.18
2022-08-04T08:59:50.792Z,43.40
2022-08-04T09:02:40.024Z,42.50
2022-08-04T09:05:24.138Z,42.55
2022-08-04T09:07:55.138Z,42.44
2022-08-04T09:10:33.970Z,42.72
2022-08-04T09:13:24.561Z,42.86
2022-08-04T09:16:19.324Z,42.39
2022-08-04T09:19:22.898Z,42.46
2022-08-04T09:22:49.555Z,42.65
2022-08-04T09:25:34.742Z,42.93
2022-08-04T09:28:11.140Z,42.84
2022-08-04T09:31:11.288Z,44.47
2022-08-04T09:33:44.876Z,44.96
2022-08-04T09:36:27.761Z,44.90
2022-08-04T09:39:12.025Z,45.43
2022-08-04T09:42:07.904Z,45.75
2022-08-04T09:44:49.242Z,45.51
2022-08-04T09:47:20.905Z,45.90
2022-08-04T09:50:14.667Z,45.48
2022-08-04T09:52:56.497Z,45.65
2022-08-04T09:55:27.061Z,46.14
2022-08-04T09:58:07.410Z,45.69
2022-08-04T10:00:44.151Z,46.22
2022-08-04T10:03:19.920Z,46.40
2022-08-04T10:05:53.579Z,46.65
2022-08-04T10:09:15.170Z,46.65
2022-08-04T10:11:56.199Z,46.78
2022-08-04T10:14:54.880Z,47.05
2022-08-04T10:17:37.685Z,47.07
2022-08-04T10:20:45.858Z,46.68
2022-08-04T10:23:18.282Z,46.67
2022-08-04T10:26:06.229Z,46.47
2022-08-04T10:28:46.584Z,46.82
2022-08-04T10:31:22.845Z,46.36
2022-08-04T10:33:57.606Z,45.75
2022-08-04T10:36:30.354Z,44.54
2022-08-04T10:39:07.846Z,43.40
2022-08-04T10:42:00.849Z,44.81
2022-08-04T10:44:42.241Z,43.75
2022-08-04T10:47:18.813Z,43.24
2022-08-04T10:49:55.782Z,44.90
2022-08-04T10:52:34.295Z,44.19
2022-08-04T10:55:10.645Z,44.34
2022-08-04T10:57:46.170Z,43.80
2022-08-04T11:00:23.198Z,44.11
2022-08-04T11:03:10.675Z,43.66
2022-08-04T11:05:47.382Z,43.62
2022-08-04T11:08:21.764Z,44.75
2022-08-04T11:11:27.205Z,45.36
2022-08-04T11:14:19.337Z,45.08
2022-08-04T11:17:05.447Z,44.75
2022-08-04T11:19:53.322Z,45.39
2022-08-04T11:22:21.955Z,44.91
2022-08-04T11:25:05.467Z,44.60
2022-08-04T11:27:51.189Z,44.50
2022-08-04T11:30:20.197Z,44.62
2022-08-04T11:33:07.145Z,45.08
2022-08-04T11:36:02.779Z,44.42
2022-08-04T11:38:52.491Z,45.17
2022-08-04T11:41:31.183Z,45.04
2022-08-04T11:44:03.847Z,44.99
2022-08-04T11:46:50.765Z,44.17
2022-08-04T11:49:56.618Z,44.40
2022-08-04T11:52:22.557Z,45.40
2022-08-04T11:54:52.533Z,45.14
2022-08-04T11:57:24.357Z,44.90
2022-08-04T12:00:12.573Z,44.62
2022-08-04T12:02:49.732Z,44.11
2022-08-04T12:05:23.462Z,43.65
2022-08-04T12:08:33.434Z,43.40
2022-08-04T12:11:25.322Z,44.03
2022-08-04T12:14:26.120Z,44.95
2022-08-04T12:17:01.792Z,43.77
2022-08-04T12:20:03.519Z,43.15
2022-08-04T12:22:41.044Z,43.27
2022-08-04T12:25:14.506Z,43.43
2022-08-04T12:27:48.434Z,43.91
2022-08-04T12:31:01.579Z,43.73
2022-08-04T12:33:10.810Z,43.92
2022-08-04T12:36:11.008Z,43.85
2022-08-04T12:38:52.572Z,44.36
2022-08-04T12:41:28.440Z,44.86
2022-08-04T12:44:04.311Z,45.13
2022-08-04T12:46:33.067Z,44.16
2022-08-04T12:49:03.182Z,43.45
2022-08-04T12:52:08.180Z,43.84
2022-08-04T12:54:29.223Z,44.00
2022-08-04T12:57:02.997Z,43.54
2022-08-04T12:59:30.816Z,43.51
2022-08-04T13:02:08.982Z,43.36
2022-08-04T13:04:51.445Z,43.12
2022-08-04T13:07:22.559Z,42.77
2022-08-04T13:09:52.348Z,43.92
2022-08-04T13:12:32.551Z,44.20
2022-08-04T13:15:17.885Z,44.05
2022-08-04T13:17:59.295Z,43.59
2022-08-04T13:20:31.384Z,43.56
2022-08-04T13:23:09.249Z,43.84
2022-08-04T13:26:44.934Z,43.05
2022-08-04T13:28:32.237Z,44.11
2022-08-04T13:31:02.640Z,43.68
2022-08-04T13:33:36.332Z,43.28
2022-08-04T13:36:07.374Z,43.72
2022-08-04T13:38:40.760Z,43.73
2022-08-04T13:41:09.455Z,43.87
2022-08-04T13:44:16.492Z,43.65
2022-08-04T13:46:50.460Z,43.88
2022-08-04T13:49:38.050Z,44.16
2022-08-04T13:52:11.465Z,43.35
2022-08-04T13:54:43.666Z,43.53
2022-08-04T13:57:23.523Z,43.68
2022-08-04T13:59:59.021Z,43.91
2022-08-04T14:02:26.703Z,43.61
2022-08-04T14:04:57.661Z,42.53
2022-08-04T14:07:27.949Z,42.14
2022-08-04T14:10:02.806Z,43.63
2022-08-04T14:12:37.663Z,44.33
2022-08-04T14:16:01.977Z,44.43
2022-08-04T14:18:27.619Z,44.75
2022-08-04T14:20:59.488Z,43.27
2022-08-04T14:23:33.287Z,42.44
2022-08-04T14:26:14.371Z,43.31
2022-08-04T14:29:09.843Z,42.20
2022-08-04T14:31:31.208Z,41.66
2022-08-04T14:34:02.570Z,41.12
2022-08-04T14:37:13.461Z,40.81
2022-08-04T14:40:08.085Z,40.67
2022-08-04T14:42:44.524Z,41.36
2022-08-04T14:45:34.909Z,42.00
2022-08-04T14:48:07.263Z,41.41
2022-08-04T14:50:38.347Z,40.75
2022-08-04T14:53:13.429Z,41.00
2022-08-04T14:55:44.337Z,40.87
2022-08-04T14:58:35.264Z,41.16
2022-08-04T15:01:10.308Z,41.32
2022-08-04T15:03:50.654Z,41.67
2022-08-04T15:06:26.437Z,41.58
2022-08-04T15:08:56.964Z,40.95
2022-08-04T15:11:25.339Z,40.38
2022-08-04T15:13:53.892Z,41.05
2022-08-04T15:16:23.377Z,41.62
2022-08-04T15:18:54.640Z,41.26
2022-08-04T15:21:26.109Z,41.61
2022-08-04T15:23:55.728Z,41.27
2022-08-04T15:26:33.513Z,40.86
2022-08-04T15:29:27.311Z,41.20
2022-08-04T15:32:03.800Z,40.90
2022-08-04T15:34:49.897Z,41.42
2022-08-04T15:37:54.792Z,40.75
2022-08-04T15:40:26.953Z,41.21
2022-08-04T15:43:11.232Z,41.34
2022-08-04T15:46:33.178Z,41.37
2022-08-04T15:48:39.484Z,41.00
2022-08-04T15:51:15.239Z,40.83
2022-08-04T15:54:01.271Z,40.94
2022-08-04T15:56:30.674Z,42.22
2022-08-04T15:58:58.578Z,42.19
2022-08-04T16:01:27.740Z,41.68
2022-08-04T16:04:01.113Z,41.57
2022-08-04T16:06:30.482Z,41.08
2022-08-04T16:09:00.939Z,41.02
2022-08-04T16:11:37.225Z,40.98
2022-08-04T16:14:07.271Z,40.96
2022-08-04T16:16:42.131Z,41.36
2022-08-04T16:19:47.615Z,41.69
2022-08-04T16:22:39.918Z,41.20
2022-08-04T16:25:09.116Z,41.55
2022-08-04T16:27:42.061Z,41.80
2022-08-04T16:30:14.459Z,41.31
2022-08-04T16:32:44.710Z,41.41
2022-08-04T16:35:27.072Z,41.04
2022-08-04T16:38:12.121Z,41.24
2022-08-04T16:40:44.390Z,41.99
2022-08-04T16:43:17.185Z,42.29
2022-08-04T16:45:54.735Z,42.27
2022-08-04T16:48:32.741Z,42.72
2022-08-04T16:51:04.848Z,42.80
2022-08-04T16:53:52.004Z,43.14
2022-08-04T16:56:29.351Z,42.87
2022-08-04T16:58:57.295Z,43.17
2022-08-04T17:01:32.927Z,43.33
2022-08-04T17:04:07.031Z,43.50
2022-08-04T17:06:37.809Z,43.39
2022-08-04T17:09:17.235Z,43.47
2022-08-04T17:11:46.753Z,43.28
2022-08-04T17:14:22.033Z,43.82
2022-08-04T17:16:50.029Z,43.51
2022-08-04T17:19:23.667Z,43.51
2022-08-04T17:22:05.587Z,43.57
2022-08-04T17:24:38.374Z,43.70
2022-08-04T17:28:08.625Z,43.84
2022-08-04T17:29:55.810Z,43.36
2022-08-04T17:32:23.981Z,43.63
2022-08-04T17:34:55.019Z,43.51
2022-08-04T17:37:39.203Z,43.89
2022-08-04T17:40:22.872Z,44.36
2022-08-04T17:44:02.949Z,44.23
2022-08-04T17:46:34.570Z,44.59
2022-08-04T17:49:17.038Z,45.05
2022-08-04T17:52:04.056Z,45.56
2022-08-04T17:54:39.370Z,45.93
2022-08-04T17:57:33.476Z,46.45
2022-08-04T18:00:01.329Z,46.64
2022-08-04T18:02:33.166Z,46.54
2022-08-04T18:05:12.123Z,46.88
2022-08-04T18:08:46.277Z,46.73
2022-08-04T18:10:52.624Z,46.91
2022-08-04T18:13:27.905Z,47.12
2022-08-04T18:16:12.620Z,47.14
2022-08-04T18:18:49.041Z,47.19
2022-08-04T18:21:18.654Z,47.16
2022-08-04T18:23:50.837Z,47.44
2022-08-04T18:26:23.653Z,48.01
2022-08-04T18:28:51.952Z,48.41
2022-08-04T18:31:19.664Z,48.15
2022-08-04T18:33:59.004Z,47.89
2022-08-04T18:36:34.014Z,48.04
2022-08-04T18:39:15.138Z,48.45
2022-08-04T18:42:02.527Z,49.06
2022-08-04T18:44:32.718Z,49.49
2022-08-04T18:47:23.334Z,50.28
2022-08-04T18:50:59.842Z,50.93
2022-08-04T18:52:45.171Z,51.22
2022-08-04T18:55:51.631Z,51.53
2022-08-04T18:58:07.203Z,52.31
2022-08-04T19:00:36.289Z,52.35
2022-08-04T19:03:04.975Z,52.40
2022-08-04T19:05:38.038Z,52.12
2022-08-04T19:08:33.961Z,52.37
2022-08-04T19:10:58.714Z,52.17
2022-08-04T19:13:34.910Z,52.77
2022-08-04T19:16:03.153Z,52.99
2022-08-04T19:18:32.457Z,53.29
2022-08-04T19:21:05.160Z,52.89
2022-08-04T19:24:11.562Z,52.87
2022-08-04T19:26:28.151Z,53.20
2022-08-04T19:28:56.384Z,53.64
2022-08-04T19:31:34.419Z,54.29
2022-08-04T19:34:09.668Z,55.01
2022-08-04T19:36:37.628Z,55.12
2022-08-04T19:39:11.370Z,55.57
2022-08-04T19:42:05.755Z,56.08
2022-08-04T19:44:30.111Z,55.85
2022-08-04T19:47:00.838Z,55.66
2022-08-04T19:50:04.795Z,55.66
2022-08-04T19:52:33.192Z,55.63
2022-08-04T19:55:10.843Z,55.61
2022-08-04T19:57:46.506Z,55.01
2022-08-04T20:00:33.233Z,55.53
2022-08-04T20:03:02.982Z,55.43
2022-08-04T20:05:52.774Z,55.85
2022-08-04T20:08:18.613Z,55.65
2022-08-04T20:10:51.372Z,55.99
2022-08-04T20:16:22.635Z,57.00
2022-08-04T20:19:00.883Z,57.79
2022-08-04T20:21:53.602Z,57.24
2022-08-04T20:24:37.751Z,57.66
2022-08-04T20:27:15.564Z,57.27
2022-08-04T20:29:49.032Z,57.58
2022-08-04T20:32:22.913Z,57.90
2022-08-04T20:34:52.688Z,57.76
2022-08-04T20:37:24.886Z,58.39
2022-08-04T20:40:02.364Z,58.76
2022-08-04T20:42:34.113Z,58.07
2022-08-04T20:50:29.631Z,57.78
2022-08-04T20:52:58.706Z,58.10
2022-08-04T20:55:29.597Z,57.65
2022-08-04T20:58:02.987Z,57.55
2022-08-04T21:00:32.043Z,57.19
2022-08-04T21:02:59.823Z,57.31
2022-08-04T21:05:27.838Z,56.81
2022-08-04T21:07:57.391Z,57.21
2022-08-04T21:10:25.924Z,57.15
2022-08-04T21:12:54.498Z,57.41
2022-08-04T21:15:50.671Z,56.82
2022-08-04T21:18:14.322Z,57.62
2022-08-04T21:20:44.683Z,57.02
2022-08-04T21:23:15.758Z,57.16
2022-08-04T21:25:45.683Z,57.21
2022-08-04T21:28:20.132Z,56.99
2022-08-04T21:30:52.603Z,56.86
2022-08-04T21:33:24.265Z,57.50
2022-08-04T21:36:12.535Z,56.84
2022-08-04T21:38:40.259Z,57.39
2022-08-04T21:41:10.964Z,57.32
2022-08-04T21:43:42.864Z,57.31
2022-08-04T21:46:11.681Z,57.26
2022-08-04T21:48:39.812Z,57.52
2022-08-04T21:51:59.261Z,57.50
2022-08-04T21:54:03.090Z,57.26
2022-08-04T21:56:31.044Z,57.14
2022-08-04T21:58:59.470Z,57.69
2022-08-04T22:01:52.432Z,57.49
2022-08-04T22:04:15.004Z,57.72
2022-08-04T22:06:42.912Z,57.59
2022-08-04T22:09:21.950Z,57.88
2022-08-04T22:11:51.478Z,57.70
2022-08-04T22:14:27.445Z,57.95
2022-08-04T22:16:57.795Z,58.29
2022-08-04T22:19:40.915Z,58.32
2022-08-04T22:22:24.496Z,58.34
2022-08-04T22:24:55.319Z,58.66
2022-08-04T22:27:47.211Z,58.22
2022-08-04T22:30:17.117Z,58.50
2022-08-04T22:32:50.457Z,58.29
2022-08-04T22:35:43.497Z,58.85
2022-08-04T22:38:25.564Z,58.67
2022-08-04T22:40:59.584Z,58.61
2022-08-04T22:43:32.034Z,58.56
2022-08-04T22:46:30.302Z,59.11
2022-08-04T22:48:57.805Z,59.25
2022-08-04T22:51:27.230Z,59.28
2022-08-04T22:53:54.898Z,59.23
2022-08-04T22:56:37.439Z,59.58
2022-08-04T22:59:10.136Z,59.10
2022-08-04T23:02:00.941Z,59.68
2022-08-04T23:04:30.416Z,59.73
2022-08-04T23:06:58.911Z,60.11
2022-08-04T23:09:50.758Z,60.03
2022-08-04T23:12:29.401Z,60.25
2022-08-04T23:14:58.931Z,60.52
2022-08-04T23:17:28.428Z,60.93
2022-08-04T23:19:59.232Z,60.84
2022-08-04T23:22:41.320Z,60.80
2022-08-04T23:25:15.295Z,60.80
2022-08-04T23:27:51.594Z,60.87
2022-08-04T23:30:29.954Z,60.22
2022-08-04T23:32:58.347Z,60.48
2022-08-04T23:35:26.661Z,60.72
2022-08-04T23:37:56.635Z,60.71
2022-08-04T23:40:33.191Z,60.81
2022-08-04T23:43:16.989Z,60.54
2022-08-04T23:46:06.821Z,60.83
2022-08-04T23:48:36.994Z,61.54
2022-08-04T23:51:14.956Z,61.15
2022-08-04T23:54:02.594Z,61.16
2022-08-04T23:56:33.971Z,61.17
2022-08-04T23:59:03.871Z,61.49
